Time;durP1;ratioP1;P1;durP2;ratioP2;P2;SDS_P1;SDS_P2;PMS_P1;PMS_P2;Temp;Humidity;BMP_temperature;BMP_pressure;BME280_temperature;BME280_humidity;BME280_pressure;Samples;Min_cycle;Max_cycle;Signal;HPM_P1;HPM_P2
2024/01/20 00:02:04;;;;;;;0.80;0.57;;;;;;;4.70;88.44;101155.22;4997600;28;20026;-50
2024/01/20 00:04:30;;;;;;;1.95;0.77;;;;;;;4.50;88.84;101155.69;5010238;28;20057;-50
2024/01/20 00:06:56;;;;;;;0.70;0.70;;;;;;;4.75;88.28;101171.09;5011739;28;20034;-48
2024/01/20 00:09:21;;;;;;;1.20;0.80;;;;;;;4.59;88.54;101153.88;5001211;28;20453;-47
2024/01/20 00:11:46;;;;;;;0.38;0.38;;;;;;;4.36;88.88;101145.06;4974471;28;20042;-47
2024/01/20 00:14:12;;;;;;;1.80;0.63;;;;;;;4.64;88.55;101163.63;4966065;28;20033;-49
2024/01/20 00:16:37;;;;;;;2.00;1.10;;;;;;;4.72;87.75;101150.38;4970090;28;20088;-49
2024/01/20 00:19:03;;;;;;;1.13;1.05;;;;;;;4.66;87.00;101164.91;4969486;28;20403;-51
2024/01/20 00:21:29;;;;;;;0.50;0.50;;;;;;;4.69;87.78;101155.50;4971562;28;20168;-47
2024/01/20 00:23:55;;;;;;;0.52;0.40;;;;;;;4.57;87.67;101169.38;4970000;28;20030;-47
2024/01/20 00:26:21;;;;;;;1.02;1.02;;;;;;;4.63;87.27;101165.50;4968022;28;20041;-49
2024/01/20 00:28:46;;;;;;;0.75;0.60;;;;;;;4.72;86.47;101166.38;4972040;28;20038;-50
2024/01/20 00:31:12;;;;;;;1.48;1.33;;;;;;;4.72;87.16;101169.06;4968553;28;20042;-49
2024/01/20 00:33:37;;;;;;;1.23;0.88;;;;;;;4.63;87.57;101176.19;4954342;28;20042;-52
2024/01/20 00:36:03;;;;;;;0.20;0.20;;;;;;;4.37;88.32;101162.66;4956114;28;20034;-48
2024/01/20 00:38:28;;;;;;;0.40;0.40;;;;;;;4.45;88.22;101161.91;4954034;28;20042;-54
2024/01/20 00:40:54;;;;;;;4.80;1.20;;;;;;;4.44;88.69;101178.22;4956546;28;20064;-52
2024/01/20 00:43:19;;;;;;;0.90;0.90;;;;;;;4.52;87.91;101172.97;4970294;28;20475;-49
2024/01/20 00:45:45;;;;;;;4.43;1.73;;;;;;;4.40;88.86;101175.38;4969796;28;20038;-47
2024/01/20 00:48:11;;;;;;;0.88;0.88;;;;;;;4.41;89.72;101176.16;4963110;28;20104;-52
2024/01/20 00:50:36;;;;;;;0.95;0.88;;;;;;;4.40;89.20;101188.69;4970812;28;20038;-52
2024/01/20 00:53:02;;;;;;;1.05;0.95;;;;;;;4.61;87.91;101173.03;4971864;28;20034;-49
2024/01/20 00:55:27;;;;;;;0.75;0.75;;;;;;;4.51;88.03;101174.03;4961525;28;20483;-50
2024/01/20 00:57:53;;;;;;;0.95;0.82;;;;;;;4.45;88.44;101185.13;4973785;28;20108;-46
2024/01/20 01:00:19;;;;;;;0.57;0.45;;;;;;;4.36;88.70;101192.25;4971108;28;20073;-50
2024/01/20 01:02:44;;;;;;;3.30;1.15;;;;;;;4.26;88.82;101181.81;4965232;28;20119;-48
2024/01/20 01:05:10;;;;;;;0.40;0.40;;;;;;;4.36;88.62;101192.25;4954514;28;20034;-49
2024/01/20 01:07:38;;;;;;;0.63;0.63;;;;;;;4.41;89.26;101195.59;4972540;28;20144;-47
2024/01/20 01:10:06;;;;;;;0.82;0.82;;;;;;;4.37;88.93;101201.84;4967610;28;20241;-50
2024/01/20 01:12:33;;;;;;;3.55;1.73;;;;;;;4.29;89.30;101214.00;4950504;28;20029;-51
2024/01/20 01:14:58;;;;;;;2.13;1.05;;;;;;;4.46;89.39;101213.38;4953671;28;20034;-49
2024/01/20 01:17:24;;;;;;;1.27;1.17;;;;;;;4.65;87.54;101224.66;4955002;28;20034;-52
2024/01/20 01:19:49;;;;;;;0.57;0.57;;;;;;;4.63;87.98;101218.06;4959307;28;20407;-48
2024/01/20 01:22:15;;;;;;;0.77;0.77;;;;;;;4.73;87.57;101213.28;4954081;28;20030;-47
2024/01/20 01:24:40;;;;;;;0.68;0.68;;;;;;;4.72;87.74;101225.06;4941381;28;20120;-47
2024/01/20 01:27:06;;;;;;;3.58;1.05;;;;;;;4.42;89.07;101225.72;4969180;28;20074;-50
2024/01/20 01:29:32;;;;;;;0.85;0.82;;;;;;;4.78;87.93;101215.81;4955172;28;20061;-49
2024/01/20 01:31:57;;;;;;;2.17;1.98;;;;;;;4.45;88.92;101233.13;4970483;28;20486;-51
2024/01/20 01:34:23;;;;;;;2.47;1.33;;;;;;;4.69;88.89;101236.31;4972585;28;20483;-50
2024/01/20 01:36:49;;;;;;;1.73;0.98;;;;;;;4.75;87.99;101235.13;4972614;28;20034;-49
2024/01/20 01:39:17;;;;;;;1.00;0.95;;;;;;;4.51;89.01;101240.69;4952523;28;20212;-51
2024/01/20 01:41:43;;;;;;;1.08;0.85;;;;;;;4.56;89.36;101240.59;4952926;28;20046;-51
2024/01/20 01:44:10;;;;;;;0.90;0.90;;;;;;;4.42;89.21;101236.38;4952701;28;21197;-47
2024/01/20 01:46:36;;;;;;;0.73;0.73;;;;;;;4.60;88.25;101238.13;4953774;28;20038;-51
2024/01/20 01:49:02;;;;;;;0.93;0.85;;;;;;;4.81;87.73;101244.59;4993976;28;20034;-48
2024/01/20 01:51:28;;;;;;;1.33;1.02;;;;;;;4.67;87.48;101238.50;4998137;28;20044;-47
2024/01/20 01:53:54;;;;;;;2.35;1.90;;;;;;;4.65;87.79;101239.88;4997170;28;20031;-47
2024/01/20 01:56:20;;;;;;;3.35;1.55;;;;;;;4.67;87.70;101246.50;4999270;28;20117;-46
2024/01/20 01:58:46;;;;;;;1.45;1.10;;;;;;;4.57;87.89;101236.84;4977504;28;22730;-46
2024/01/20 02:01:12;;;;;;;2.90;1.85;;;;;;;4.58;89.15;101251.75;4973209;28;20077;-47
2024/01/20 02:03:39;;;;;;;2.10;1.10;;;;;;;4.65;88.37;101232.66;4955993;28;20037;-46
2024/01/20 02:06:06;;;;;;;1.63;1.52;;;;;;;4.52;88.79;101249.50;4974246;28;20026;-48
2024/01/20 02:08:32;;;;;;;3.78;1.90;;;;;;;4.66;87.99;101250.25;4972725;28;20113;-50
2024/01/20 02:10:57;;;;;;;1.77;1.67;;;;;;;4.36;89.29;101250.88;4977345;28;20132;-51
2024/01/20 02:13:23;;;;;;;5.15;2.33;;;;;;;4.37;89.32;101247.94;4991054;28;20034;-49
2024/01/20 02:15:49;;;;;;;3.22;1.75;;;;;;;4.48;89.58;101253.84;4998339;28;20052;-48
2024/01/20 02:18:14;;;;;;;1.70;1.58;;;;;;;4.31;90.03;101249.13;4989536;28;20026;-49
2024/01/20 02:20:40;;;;;;;2.75;2.10;;;;;;;4.32;89.47;101252.56;4979528;28;20061;-52
2024/01/20 02:23:05;;;;;;;1.42;1.33;;;;;;;4.18;91.14;101251.81;4979415;28;20093;-48
2024/01/20 02:25:31;;;;;;;3.30;1.90;;;;;;;4.37;89.79;101263.16;4980924;28;20374;-50
2024/01/20 02:27:56;;;;;;;3.75;1.33;;;;;;;4.61;88.65;101269.03;4987217;28;20030;-47
2024/01/20 02:30:22;;;;;;;1.23;1.20;;;;;;;4.61;88.39;101271.69;4996041;28;20577;-47
2024/01/20 02:32:47;;;;;;;1.10;1.10;;;;;;;4.62;88.38;101262.63;4984795;28;20080;-54
2024/01/20 02:35:13;;;;;;;2.53;1.60;;;;;;;4.62;88.30;101269.81;4978376;28;20041;-48
2024/01/20 02:37:40;;;;;;;1.98;1.67;;;;;;;4.37;89.67;101269.28;4979307;28;20045;-48
2024/01/20 02:40:07;;;;;;;7.30;1.60;;;;;;;4.42;89.54;101271.81;4979322;28;20410;-48
2024/01/20 02:42:32;;;;;;;2.47;1.73;;;;;;;4.55;89.11;101264.88;4995129;28;20171;-47
2024/01/20 02:44:58;;;;;;;1.70;1.40;;;;;;;4.57;88.57;101273.38;4977566;28;20030;-46
2024/01/20 02:47:24;;;;;;;0.80;0.80;;;;;;;4.43;88.28;101262.72;4968512;28;20037;-50
2024/01/20 02:49:49;;;;;;;2.63;1.67;;;;;;;4.46;88.85;101258.69;4965908;28;20045;-48
2024/01/20 02:52:15;;;;;;;1.65;1.45;;;;;;;4.14;90.63;101256.91;4961180;28;20503;-49
2024/01/20 02:54:40;;;;;;;5.00;2.70;;;;;;;4.36;89.69;101264.22;4953445;28;20033;-47
2024/01/20 02:57:06;;;;;;;0.95;0.90;;;;;;;4.63;88.71;101268.75;4954584;28;20140;-49
2024/01/20 02:59:31;;;;;;;2.38;1.52;;;;;;;4.28;89.15;101265.72;4953677;28;20042;-49
2024/01/20 03:01:58;;;;;;;2.15;1.55;;;;;;;4.15;90.41;101263.06;4960307;28;20087;-47
2024/01/20 03:04:23;;;;;;;1.20;1.17;;;;;;;3.96;91.63;101273.00;4987874;28;20037;-46
2024/01/20 03:06:49;;;;;;;2.33;2.10;;;;;;;4.17;91.28;101274.19;4985613;28;20030;-47
2024/01/20 03:09:14;;;;;;;1.30;1.15;;;;;;;4.25;90.96;101268.19;4980577;28;20084;-47
2024/01/20 03:11:42;;;;;;;1.77;1.00;;;;;;;4.24;90.05;101267.38;4985628;28;20040;-46
2024/01/20 03:14:11;;;;;;;2.25;2.00;;;;;;;4.33;90.76;101273.63;4991220;28;20542;-50
2024/01/20 03:16:37;;;;;;;5.28;2.53;;;;;;;4.20;90.04;101277.06;4993091;28;20038;-46
2024/01/20 03:19:03;;;;;;;1.00;0.90;;;;;;;4.42;90.13;101281.69;4975525;28;20041;-51
2024/01/20 03:21:29;;;;;;;3.60;1.45;;;;;;;4.53;89.42;101280.38;4973105;28;20133;-47
2024/01/20 03:23:54;;;;;;;2.58;1.80;;;;;;;4.27;89.71;101282.00;4977825;28;20109;-48
2024/01/20 03:26:20;;;;;;;0.90;0.90;;;;;;;4.46;90.13;101285.34;4976697;28;20026;-51
2024/01/20 03:28:45;;;;;;;2.42;2.15;;;;;;;4.51;89.62;101271.91;4990040;28;20069;-53
2024/01/20 03:31:11;;;;;;;2.08;1.40;;;;;;;4.70;89.04;101277.13;4992977;28;20061;-50
2024/01/20 03:33:37;;;;;;;2.13;1.67;;;;;;;4.48;89.53;101285.84;4974556;28;20021;-48
2024/01/20 03:36:02;;;;;;;2.28;1.58;;;;;;;4.44;89.46;101280.31;4977780;28;20031;-47
2024/01/20 03:38:28;;;;;;;1.48;1.35;;;;;;;4.44;89.62;101280.31;4978747;28;20026;-47
2024/01/20 03:40:53;;;;;;;2.38;1.90;;;;;;;4.44;89.21;101292.84;4976164;28;20533;-47
2024/01/20 03:43:19;;;;;;;4.72;2.80;;;;;;;4.51;88.87;101296.69;4979210;28;20029;-46
2024/01/20 03:45:44;;;;;;;1.75;1.63;;;;;;;4.46;88.32;101298.69;4990561;28;20105;-47
2024/01/20 03:48:10;;;;;;;1.88;1.73;;;;;;;4.40;88.31;101286.53;4980382;28;20553;-49
2024/01/20 03:50:36;;;;;;;4.72;2.95;;;;;;;4.45;89.35;101299.78;4971041;28;20034;-47
2024/01/20 03:53:01;;;;;;;1.88;1.75;;;;;;;4.35;89.43;101303.44;4978823;28;20045;-50
2024/01/20 03:55:27;;;;;;;4.35;2.80;;;;;;;4.38;88.78;101294.03;4975945;28;20035;-46
2024/01/20 03:57:53;;;;;;;6.82;3.20;;;;;;;4.03;90.32;101306.16;4991399;28;20478;-47
2024/01/20 04:00:18;;;;;;;3.75;2.03;;;;;;;4.48;88.73;101313.31;4986355;28;20068;-49
2024/01/20 04:02:44;;;;;;;3.83;2.22;;;;;;;4.47;88.52;101311.69;4985219;28;20034;-50
2024/01/20 04:05:10;;;;;;;4.03;3.03;;;;;;;4.40;88.65;101322.00;4989523;28;20545;-49
2024/01/20 04:07:37;;;;;;;3.42;2.53;;;;;;;4.05;91.17;101324.53;4994760;28;20061;-48
2024/01/20 04:10:03;;;;;;;3.50;2.30;;;;;;;4.12;90.09;101323.03;4982499;28;20046;-49
2024/01/20 04:12:29;;;;;;;2.28;2.08;;;;;;;4.47;88.57;101333.03;4979324;28;20034;-52
2024/01/20 04:14:55;;;;;;;4.15;1.42;;;;;;;4.41;89.10;101339.53;4977347;28;20031;-48
2024/01/20 04:17:21;;;;;;;3.03;2.42;;;;;;;4.23;89.01;101326.31;4968008;28;20042;-47
2024/01/20 04:19:46;;;;;;;2.13;1.75;;;;;;;4.15;90.30;101329.66;4986419;28;20025;-48
2024/01/20 04:22:12;;;;;;;3.08;2.80;;;;;;;4.30;89.76;101338.16;4993026;28;20064;-51
2024/01/20 04:24:37;;;;;;;5.13;2.80;;;;;;;4.16;90.58;101341.91;4988559;28;20468;-48
2024/01/20 04:27:03;;;;;;;3.55;2.63;;;;;;;4.30;90.48;101342.72;4996142;28;20075;-49
2024/01/20 04:29:28;;;;;;;2.25;2.10;;;;;;;4.46;89.48;101349.34;5000455;28;20045;-47
2024/01/20 04:31:54;;;;;;;3.35;2.85;;;;;;;4.25;89.89;101340.94;4985495;28;20037;-50
2024/01/20 04:34:19;;;;;;;4.75;1.95;;;;;;;4.05;91.51;101332.50;4989686;28;20551;-47
2024/01/20 04:36:45;;;;;;;2.85;2.22;;;;;;;3.93;92.16;101348.97;4981112;28;20038;-48
2024/01/20 04:39:11;;;;;;;1.88;1.73;;;;;;;4.02;92.26;101335.78;4956306;28;21823;-53
2024/01/20 04:41:37;;;;;;;5.70;2.10;;;;;;;4.22;91.82;101346.06;4982434;28;20041;-49
2024/01/20 04:44:03;;;;;;;3.80;3.10;;;;;;;4.25;90.63;101343.59;4977021;28;20450;-49
2024/01/20 04:46:28;;;;;;;3.80;2.78;;;;;;;4.30;90.80;101354.16;4980305;28;20022;-48
2024/01/20 04:48:54;;;;;;;4.88;4.35;;;;;;;4.48;89.96;101350.63;4993456;28;20038;-49
2024/01/20 04:51:19;;;;;;;5.63;2.85;;;;;;;4.51;90.36;101343.88;4984819;28;20482;-49
2024/01/20 04:53:45;;;;;;;3.28;2.65;;;;;;;4.45;89.87;101347.78;4992521;28;20876;-47
2024/01/20 04:56:10;;;;;;;2.47;2.22;;;;;;;4.45;90.62;101345.88;4996591;28;20030;-50
2024/01/20 04:58:37;;;;;;;2.90;2.03;;;;;;;4.26;90.84;101360.38;4981563;28;20030;-52
2024/01/20 05:01:03;;;;;;;3.10;2.90;;;;;;;4.41;90.47;101354.78;4995159;28;20075;-48
2024/01/20 05:03:28;;;;;;;3.78;2.22;;;;;;;4.39;90.83;101362.28;4981416;28;20046;-52
2024/01/20 05:05:54;;;;;;;3.38;2.72;;;;;;;4.15;91.62;101364.31;4981897;28;20026;-47
2024/01/20 05:08:19;;;;;;;4.70;3.60;;;;;;;4.00;91.78;101361.91;4980808;28;20066;-49
2024/01/20 05:10:45;;;;;;;4.88;2.38;;;;;;;4.20;91.62;101366.91;4977322;28;20037;-47
2024/01/20 05:13:11;;;;;;;2.05;1.88;;;;;;;4.21;91.72;101361.28;4990501;28;20038;-48
2024/01/20 05:15:38;;;;;;;1.75;1.40;;;;;;;4.30;91.64;101361.38;4994013;28;20034;-51
2024/01/20 05:18:04;;;;;;;2.80;2.08;;;;;;;4.15;91.52;101362.44;4992865;28;20085;-50
2024/01/20 05:20:32;;;;;;;2.00;1.88;;;;;;;4.31;90.58;101363.75;4986555;28;20080;-46
2024/01/20 05:22:57;;;;;;;4.60;2.60;;;;;;;4.11;91.98;101363.31;4990687;28;20033;-48
2024/01/20 05:25:23;;;;;;;3.38;2.25;;;;;;;4.09;91.90;101374.28;4976612;28;20061;-51
2024/01/20 05:27:49;;;;;;;3.92;3.58;;;;;;;4.17;92.27;101378.13;4996668;28;20036;-48
2024/01/20 05:30:14;;;;;;;2.60;1.95;;;;;;;4.29;91.29;101375.78;4998313;28;20625;-52
2024/01/20 05:32:41;;;;;;;6.50;3.38;;;;;;;4.03;91.87;101380.78;4996819;28;20037;-48
2024/01/20 05:35:07;;;;;;;1.85;1.58;;;;;;;4.34;91.25;101386.34;4985106;28;20030;-49
2024/01/20 05:37:32;;;;;;;3.45;2.50;;;;;;;4.43;90.94;101389.94;4987581;28;20602;-46
2024/01/20 05:39:58;;;;;;;2.38;1.95;;;;;;;4.38;90.16;101382.00;4989657;28;20037;-49
2024/01/20 05:42:23;;;;;;;6.60;2.30;;;;;;;4.11;91.72;101390.75;4994023;28;20042;-48
2024/01/20 05:44:49;;;;;;;2.20;2.00;;;;;;;4.18;92.29;101393.06;4997391;28;20018;-51
2024/01/20 05:47:14;;;;;;;4.95;2.80;;;;;;;4.35;90.33;101386.06;4997631;28;20039;-47
2024/01/20 05:49:40;;;;;;;2.90;2.63;;;;;;;4.49;89.46;101381.53;4999956;28;20455;-45
2024/01/20 05:52:05;;;;;;;4.05;3.08;;;;;;;4.43;89.34;101388.03;4990950;28;20108;-51
2024/01/20 05:54:30;;;;;;;4.35;2.85;;;;;;;4.16;90.63;101392.56;4983349;28;20034;-50
2024/01/20 05:56:56;;;;;;;1.98;1.75;;;;;;;4.30;90.73;101401.34;4986281;28;20406;-49
2024/01/20 05:59:21;;;;;;;5.55;2.55;;;;;;;4.50;89.54;101398.31;4990559;28;20048;-48
2024/01/20 06:01:50;;;;;;;3.40;2.75;;;;;;;4.25;89.99;101398.78;4979902;28;20037;-52
2024/01/20 06:04:19;;;;;;;4.55;2.38;;;;;;;4.17;90.13;101410.91;4999033;28;20034;-48
2024/01/20 06:06:48;;;;;;;4.88;2.83;;;;;;;4.06;90.31;101411.38;5001320;28;20046;-49
2024/01/20 06:09:14;;;;;;;3.35;2.60;;;;;;;4.20;90.27;101412.97;4994570;28;20074;-52
2024/01/20 06:11:40;;;;;;;4.15;2.47;;;;;;;4.09;90.49;101416.09;4996117;28;20034;-49
2024/01/20 06:14:06;;;;;;;5.65;3.25;;;;;;;4.06;90.82;101406.03;4978079;28;20041;-53
2024/01/20 06:16:33;;;;;;;3.75;2.17;;;;;;;4.06;90.04;101414.03;4994548;28;20044;-51
2024/01/20 06:19:00;;;;;;;4.20;2.97;;;;;;;4.04;90.73;101410.88;4994270;28;20041;-51
2024/01/20 06:21:25;;;;;;;4.18;2.80;;;;;;;4.27;90.13;101418.72;4986763;28;20065;-47
2024/01/20 06:23:51;;;;;;;4.25;2.15;;;;;;;4.25;89.55;101430.75;4985253;28;20062;-47
2024/01/20 06:26:17;;;;;;;2.88;2.05;;;;;;;4.02;90.68;101416.50;4980110;28;20038;-45
2024/01/20 06:28:42;;;;;;;7.63;4.57;;;;;;;3.63;92.22;101424.84;4985488;28;20041;-48
2024/01/20 06:31:08;;;;;;;6.70;2.78;;;;;;;3.89;91.10;101435.88;4994538;28;20042;-51
2024/01/20 06:33:34;;;;;;;4.72;3.15;;;;;;;4.10;90.98;101420.38;4996410;28;20108;-48
2024/01/20 06:35:59;;;;;;;4.00;2.45;;;;;;;4.01;90.34;101428.22;4984930;28;20060;-50
2024/01/20 06:38:26;;;;;;;4.68;3.50;;;;;;;4.02;91.28;101435.16;4968493;28;20061;-47
2024/01/20 06:40:51;;;;;;;2.08;1.85;;;;;;;4.02;89.37;101434.34;4986941;28;20037;-46
2024/01/20 06:43:17;;;;;;;2.53;2.33;;;;;;;4.12;90.07;101432.28;4985426;28;21118;-48
2024/01/20 06:45:42;;;;;;;2.63;2.30;;;;;;;4.03;90.71;101435.91;4995595;28;20121;-50
2024/01/20 06:48:09;;;;;;;10.27;3.20;;;;;;;3.83;90.69;101430.94;4998987;28;20052;-54
2024/01/20 06:50:42;;;;;;;2.67;1.98;;;;;;;3.91;90.57;101431.03;4997325;28;20046;-54
2024/01/20 06:53:10;;;;;;;2.90;1.92;;;;;;;3.94;90.64;101429.69;5000042;28;20057;-47
2024/01/20 06:55:35;;;;;;;3.25;2.97;;;;;;;3.89;90.97;101435.09;4999109;28;20171;-45
2024/01/20 06:58:01;;;;;;;5.07;2.45;;;;;;;4.13;89.65;101438.44;4995909;28;20245;-46
2024/01/20 07:00:26;;;;;;;4.07;2.85;;;;;;;4.23;88.59;101435.59;4999775;28;20042;-50
2024/01/20 07:02:51;;;;;;;2.95;2.67;;;;;;;4.16;88.80;101437.84;4988976;28;20443;-49
2024/01/20 07:05:17;;;;;;;3.28;2.42;;;;;;;4.13;88.64;101427.75;4988102;28;20026;-48
2024/01/20 07:07:43;;;;;;;6.35;2.90;;;;;;;3.84;89.38;101427.19;4979396;28;20042;-45
2024/01/20 07:10:09;;;;;;;5.43;2.65;;;;;;;3.77;90.36;101430.22;4968060;28;20418;-49
2024/01/20 07:12:35;;;;;;;3.67;1.70;;;;;;;4.04;88.98;101430.31;4990687;28;20430;-49
2024/01/20 07:15:00;;;;;;;4.13;2.80;;;;;;;4.16;88.26;101435.97;4996507;28;20418;-46
2024/01/20 07:17:26;;;;;;;6.78;2.83;;;;;;;4.08;88.22;101433.19;4992323;28;20184;-47
2024/01/20 07:19:51;;;;;;;6.75;4.40;;;;;;;3.61;90.04;101442.19;4977984;28;20049;-53
2024/01/20 07:22:17;;;;;;;4.47;2.13;;;;;;;3.81;90.34;101443.75;4988500;28;20026;-48
2024/01/20 07:24:42;;;;;;;4.88;2.55;;;;;;;3.65;89.95;101443.19;4983003;28;20041;-51
2024/01/20 07:27:07;;;;;;;4.00;2.80;;;;;;;3.70;90.46;101445.75;4987371;28;20552;-47
2024/01/20 07:29:33;;;;;;;2.80;2.53;;;;;;;3.68;90.20;101454.03;5000877;28;20037;-47
2024/01/20 07:31:58;;;;;;;2.33;2.13;;;;;;;3.78;90.39;101452.31;5000607;28;20033;-52
2024/01/20 07:34:25;;;;;;;2.30;1.80;;;;;;;3.79;90.09;101459.22;4989381;28;20099;-52
2024/01/20 07:36:50;;;;;;;3.17;2.03;;;;;;;3.57;90.22;101465.94;4992709;28;20049;-51
2024/01/20 07:39:16;;;;;;;4.90;2.05;;;;;;;3.84;89.61;101456.47;4990513;28;20704;-51
2024/01/20 07:41:41;;;;;;;6.15;2.67;;;;;;;3.91;89.17;101468.34;4975343;28;20128;-48
2024/01/20 07:44:06;;;;;;;2.40;2.20;;;;;;;3.91;89.23;101470.25;4978783;28;20042;-50
2024/01/20 07:46:32;;;;;;;2.25;2.05;;;;;;;3.70;90.27;101475.06;4980409;28;20445;-47
2024/01/20 07:48:57;;;;;;;6.13;3.72;;;;;;;3.85;89.61;101474.84;4959668;28;20045;-50
2024/01/20 07:51:23;;;;;;;2.90;2.60;;;;;;;3.79;89.31;101491.19;4976470;28;20029;-51
2024/01/20 07:53:48;;;;;;;4.15;2.50;;;;;;;3.91;89.49;101494.22;4988567;28;20042;-47
2024/01/20 07:56:16;;;;;;;2.17;1.58;;;;;;;4.02;88.38;101491.09;4987816;28;20080;-48
2024/01/20 07:58:41;;;;;;;1.48;1.23;;;;;;;3.89;88.92;101494.47;5001205;28;20041;-47
2024/01/20 08:01:07;;;;;;;2.53;1.88;;;;;;;3.83;89.28;101503.66;4989097;28;20041;-47
2024/01/20 08:03:32;;;;;;;3.10;1.85;;;;;;;3.92;89.31;101511.75;4967340;28;20096;-52
2024/01/20 08:05:59;;;;;;;1.67;1.58;;;;;;;4.00;88.01;101514.59;4959060;28;20034;-46
2024/01/20 08:08:24;;;;;;;2.38;2.08;;;;;;;4.11;88.37;101518.66;4967619;28;20026;-50
2024/01/20 08:10:50;;;;;;;4.80;2.53;;;;;;;3.99;88.53;101520.19;4973176;28;20969;-47
2024/01/20 08:13:16;;;;;;;3.30;2.80;;;;;;;3.85;89.17;101535.31;4977990;28;20355;-51
2024/01/20 08:15:41;;;;;;;3.30;2.60;;;;;;;4.00;88.40;101525.25;4980268;28;20065;-48
2024/01/20 08:18:07;;;;;;;3.72;2.45;;;;;;;4.06;88.57;101531.28;4979217;28;20044;-49
2024/01/20 08:20:32;;;;;;;5.35;1.80;;;;;;;4.13;88.12;101534.34;4979785;28;20093;-48
2024/01/20 08:22:58;;;;;;;3.78;1.92;;;;;;;4.05;87.72;101532.34;4978869;28;20037;-52
2024/01/20 08:25:23;;;;;;;3.50;2.00;;;;;;;4.07;88.20;101538.97;4975687;28;20054;-46
2024/01/20 08:27:49;;;;;;;3.88;2.35;;;;;;;4.03;88.46;101543.28;4975996;28;20082;-49
2024/01/20 08:30:14;;;;;;;2.42;2.15;;;;;;;4.05;87.96;101549.13;4978598;28;20125;-49
2024/01/20 08:32:40;;;;;;;4.63;2.67;;;;;;;4.00;88.29;101540.41;4995798;28;20418;-50
2024/01/20 08:35:05;;;;;;;1.48;1.38;;;;;;;4.06;88.29;101540.06;5000771;28;20035;-51
2024/01/20 08:37:31;;;;;;;4.15;2.63;;;;;;;4.08;87.59;101553.09;4984086;28;20030;-50
2024/01/20 08:39:57;;;;;;;3.65;1.92;;;;;;;4.38;86.72;101560.63;4983277;28;20038;-48
2024/01/20 08:42:25;;;;;;;4.03;2.67;;;;;;;4.29;87.42;101552.50;4983385;28;20048;-48
2024/01/20 08:44:51;;;;;;;5.95;3.53;;;;;;;4.30;86.86;101554.09;4984081;28;20033;-49
2024/01/20 08:47:20;;;;;;;2.10;1.63;;;;;;;4.44;85.92;101556.78;4978265;28;20587;-48
2024/01/20 08:49:51;;;;;;;2.92;2.20;;;;;;;4.26;87.06;101562.94;4976573;28;20038;-49
2024/01/20 08:52:17;;;;;;;;;;;;;;;4.22;87.36;101561.97;4977048;28;20038;-49
2024/01/20 08:54:42;;;;;;;7.35;2.08;;;;;;;4.30;86.15;101551.41;4978590;28;20382;-49
2024/01/20 08:57:08;;;;;;;4.47;2.92;;;;;;;4.42;85.50;101562.44;4977331;28;20052;-48
2024/01/20 08:59:33;;;;;;;6.35;2.58;;;;;;;4.63;85.65;101570.88;4972294;28;20045;-46
2024/01/20 09:01:59;;;;;;;5.53;3.00;;;;;;;4.82;84.35;101584.97;4973188;28;20040;-50
2024/01/20 09:04:24;;;;;;;6.75;2.58;;;;;;;4.79;83.58;101585.56;4981263;28;20034;-49
2024/01/20 09:06:50;;;;;;;5.03;2.75;;;;;;;4.67;83.94;101592.44;4977882;28;20038;-45
2024/01/20 09:09:16;;;;;;;1.55;1.42;;;;;;;4.66;84.74;101588.19;4980612;28;20073;-50
2024/01/20 09:11:42;;;;;;;4.05;2.95;;;;;;;4.79;84.75;101596.22;4975777;28;20509;-47
2024/01/20 09:14:07;;;;;;;3.15;2.28;;;;;;;4.78;83.75;101597.28;4971626;28;20033;-48
2024/01/20 09:16:33;;;;;;;3.63;2.33;;;;;;;4.56;84.88;101603.28;4975379;28;20044;-50
2024/01/20 09:18:58;;;;;;;3.28;2.17;;;;;;;4.57;84.52;101607.50;4971587;28;20053;-51
2024/01/20 09:21:24;;;;;;;2.20;1.92;;;;;;;4.61;84.46;101618.38;4976430;28;21468;-47
2024/01/20 09:23:51;;;;;;;4.07;2.45;;;;;;;4.52;84.57;101630.81;4975083;28;21626;-48
2024/01/20 09:26:17;;;;;;;2.83;2.40;;;;;;;4.94;83.32;101630.66;4957125;28;20188;-45
2024/01/20 09:28:42;;;;;;;4.43;2.40;;;;;;;5.06;82.23;101622.97;4975051;28;20133;-48
2024/01/20 09:31:08;;;;;;;6.53;2.55;;;;;;;4.76;84.28;101634.19;4974041;28;20118;-50
2024/01/20 09:33:34;;;;;;;6.38;2.05;;;;;;;5.05;82.91;101637.41;4973747;28;20042;-48
2024/01/20 09:35:59;;;;;;;6.80;1.98;;;;;;;5.07;82.48;101637.91;4975663;28;20038;-50
2024/01/20 09:38:28;;;;;;;1.80;1.52;;;;;;;5.09;82.20;101634.97;4974564;28;20061;-46
2024/01/20 09:40:55;;;;;;;3.20;2.35;;;;;;;4.94;82.64;101633.31;4973759;28;20060;-52
2024/01/20 09:43:21;;;;;;;2.85;2.50;;;;;;;5.18;82.17;101628.66;4974769;28;20112;-54
2024/01/20 09:45:47;;;;;;;2.08;1.65;;;;;;;5.26;81.61;101633.31;4971361;28;20065;-48
2024/01/20 09:48:12;;;;;;;9.02;2.58;;;;;;;4.95;80.95;101634.94;4976197;28;20076;-50
2024/01/20 09:50:38;;;;;;;6.30;3.92;;;;;;;4.88;82.61;101639.81;4971665;28;20077;-46
2024/01/20 09:53:13;;;;;;;3.08;1.85;;;;;;;4.58;83.46;101642.97;4968610;28;20499;-48
2024/01/20 09:55:40;;;;;;;3.22;2.25;;;;;;;4.80;83.14;101653.06;4971642;28;20046;-46
2024/01/20 09:58:07;;;;;;;4.40;1.83;;;;;;;4.48;84.37;101627.94;4972336;28;20096;-50
2024/01/20 10:00:33;;;;;;;2.58;1.95;;;;;;;4.46;85.34;101643.44;4971757;28;20037;-50
2024/01/20 10:03:02;;;;;;;4.40;2.42;;;;;;;4.73;84.20;101647.28;4952459;28;20037;-47
2024/01/20 10:05:28;;;;;;;4.00;2.40;;;;;;;4.94;81.71;101644.00;4970965;28;20323;-51
2024/01/20 10:07:54;;;;;;;1.73;1.25;;;;;;;4.91;81.78;101657.13;4970694;28;20041;-47
2024/01/20 10:10:21;;;;;;;6.90;1.58;;;;;;;4.83;82.91;101645.25;4971924;28;20772;-50
2024/01/20 10:12:51;;;;;;;2.15;2.03;;;;;;;5.04;81.83;101646.50;4976949;28;20022;-52
2024/01/20 10:15:28;;;;;;;5.25;1.98;;;;;;;5.20;81.71;101633.69;4976729;28;20527;-47
2024/01/20 10:17:55;;;;;;;2.90;2.08;;;;;;;4.99;82.71;101643.13;4984730;28;20128;-49
2024/01/20 10:20:21;;;;;;;4.68;2.42;;;;;;;5.19;80.78;101640.91;4985567;28;20042;-51
2024/01/20 10:22:48;;;;;;;2.88;2.03;;;;;;;5.16;80.89;101638.81;4993508;28;20034;-49
2024/01/20 10:25:20;;;;;;;6.20;2.28;;;;;;;5.02;81.68;101654.00;4991805;28;20196;-51
2024/01/20 10:27:50;;;;;;;3.92;2.45;;;;;;;5.20;81.01;101649.69;5001753;28;20034;-50
2024/01/20 10:30:17;;;;;;;4.55;2.13;;;;;;;5.51;80.98;101645.41;5007683;28;20042;-47
2024/01/20 10:32:44;;;;;;;5.95;2.20;;;;;;;5.65;79.85;101654.22;4988122;28;20398;-50
2024/01/20 10:35:10;;;;;;;7.55;2.72;;;;;;;5.61;79.95;101647.88;4992248;28;20046;-52
2024/01/20 10:37:40;;;;;;;3.20;1.95;;;;;;;5.39;80.24;101653.91;4986131;28;20125;-48
2024/01/20 10:40:14;;;;;;;1.60;1.50;;;;;;;5.61;80.15;101655.91;4983447;28;20076;-45
2024/01/20 10:42:45;;;;;;;2.80;2.33;;;;;;;5.74;79.35;101656.97;4987665;28;20542;-49
2024/01/20 10:45:16;;;;;;;2.88;2.25;;;;;;;5.49;79.20;101652.91;4991340;28;20034;-48
2024/01/20 10:47:51;;;;;;;7.38;2.47;;;;;;;5.45;80.31;101657.25;4991351;28;20498;-50
2024/01/20 10:50:18;;;;;;;5.25;2.25;;;;;;;5.48;80.20;101657.44;4990012;28;20045;-50
2024/01/20 10:52:45;;;;;;;4.03;2.00;;;;;;;5.36;81.32;101649.13;4988520;28;20034;-50
2024/01/20 10:55:12;;;;;;;4.78;2.30;;;;;;;5.55;80.08;101653.59;4997171;28;20566;-48
2024/01/20 10:57:37;;;;;;;5.47;2.78;;;;;;;5.36;79.79;101661.72;4998926;28;20034;-47
2024/01/20 11:00:07;;;;;;;3.65;1.35;;;;;;;5.69;78.45;101654.41;4991811;28;20046;-52
2024/01/20 11:02:34;;;;;;;11.07;1.98;;;;;;;5.66;78.76;101652.31;4984567;28;20045;-50
2024/01/20 11:04:59;;;;;;;7.30;1.77;;;;;;;5.73;79.07;101658.06;4984115;28;20034;-48
2024/01/20 11:07:28;;;;;;;2.63;2.00;;;;;;;5.44;79.73;101656.47;4984123;28;20649;-48
2024/01/20 11:09:56;;;;;;;2.53;2.15;;;;;;;5.79;79.17;101659.56;4982103;28;20038;-47
2024/01/20 11:12:23;;;;;;;1.90;1.80;;;;;;;5.66;78.87;101650.44;4984529;28;20035;-51
2024/01/20 11:14:54;;;;;;;4.97;3.33;;;;;;;5.53;79.03;101655.78;4984984;28;20025;-52
2024/01/20 11:17:20;;;;;;;4.88;2.83;;;;;;;5.37;80.97;101653.41;4985567;28;20096;-53
2024/01/20 11:19:46;;;;;;;3.15;2.63;;;;;;;5.23;80.99;101660.59;4974585;28;20407;-48
2024/01/20 11:22:34;;;;;;;2.65;2.15;;;;;;;5.25;80.59;101661.09;4990638;22;20252;-58
2024/01/20 11:25:04;;;;;;;4.07;2.13;;;;;;;5.49;80.54;101653.72;4992749;28;20045;-59
2024/01/20 11:27:30;;;;;;;1.88;1.73;;;;;;;5.33;80.37;101655.06;5001698;28;20400;-56
2024/01/20 11:30:08;;;;;;;1.90;1.60;;;;;;;5.14;80.85;101664.22;5003255;28;20132;-58